Aérodrome :
LOGIN :

S'inscrire | Disclaimer

   EN    FR    IT 

 










Légende :    VFR   VFR Marginal   IFR   IFR Intensif   IFR Très Intensif
Visi : 
Plafond : 
>= 8 km
>= 3000ft
5 à 8 km
1000 à 3000 ft
1500m à 5 km
500 à 1000 ft
800 à 1500m
200 à 500 ft
< 800m
< 200 ft
Symboles :   Orages  Brouillard  Fortes neiges  Fortes précipitations  Vent > 20 kt
SIGMETs :   Divers  Orages  Givrage  Turbulence  Onde Orograph.  Cendres Volcan.







- Altitude de l'aérodrome : 126 ft
- Code IATA : WIC
- Voir les cartes d'approche


EGPC - Wick

DERNIER METAR :
  • 191720Z 27006KT 9999 VCSH FEW019 08/06 Q1020

METARs EXPIRÉS :
  • 191650Z 28007KT 9999 VCSH SCT020 08/06 Q1020
  • 191620Z 27006KT 9999 VCSH SCT020 09/07 Q1019
  • 191550Z 30011KT 9999 VCSH FEW009 SCT021 10/08 Q1019
  • 191520Z 30012KT 9999 FEW031 SCT042 10/07 Q1019
  • 191450Z 30016KT 9999 FEW031 SCT042 10/07 Q1018

TAF TAF EGPC
Valide du 19 à 18h jusqu'au 20 à 03h UTC


191700Z 1918/2003 27009KT 9999 FEW025
ATIS : +44 1955 607 596
Pas de NOTAMs connus pour ce terrain.
1 SIGMET publié pour la FIR Scottish (EGPX) :
 
Turbulence forte
EGPX SIGMET 06 VALID 191600/191900 EGRR
EGPX SCOTTISH FIR SEV TURB FCST WI N5500 W00501 - N5719 W00549 - N5951 W00926 - N6018 W00750 - N5818 W00411 - N5500 W00216 - N5500 W00501 FL250/400 MOV ESE 30KT WKN=



MET'MAP, la Météo Aéronautique d'un coup d'oeil ! - Copyright ORBIFLY Décembre 2007 - Disclaimer

ORBIFLY MET'MAP TEAM :

Programmation & Développement : Alexandra Zaïnal
Conception & Développement : Baudouin d'Aumeries
Co-Programmation & Développement : Marc-Olivier Méhu
Soutien technique & logistique : Manuel Goepfert

Contact : metmap@orbifly.com




SOURCES & CREDITS :

   NOAA